createdAt,value
2022-12-31T00:02:31.748Z,4.07
2022-12-31T00:05:36.595Z,4.09
2022-12-31T00:08:39.478Z,4.18
2022-12-31T00:11:42.701Z,4.10
2022-12-31T00:14:45.751Z,4.03
2022-12-31T00:17:48.961Z,4.21
2022-12-31T00:20:51.895Z,4.17
2022-12-31T00:23:56.428Z,4.07
2022-12-31T00:26:59.327Z,4.12
2022-12-31T00:30:04.967Z,4.15
2022-12-31T00:33:09.047Z,4.16
2022-12-31T00:36:12.148Z,4.13
2022-12-31T00:39:15.181Z,4.22
2022-12-31T00:42:18.758Z,4.29
2022-12-31T00:45:21.661Z,4.35
2022-12-31T00:48:25.052Z,4.41
2022-12-31T00:51:28.489Z,4.37
2022-12-31T00:54:31.689Z,4.41
2022-12-31T00:57:34.659Z,4.47
2022-12-31T01:00:38.319Z,4.39
2022-12-31T01:03:41.326Z,4.36
2022-12-31T01:06:45.387Z,4.44
2022-12-31T01:09:48.328Z,4.49
2022-12-31T01:12:51.874Z,4.48
2022-12-31T01:15:55.058Z,4.42
2022-12-31T01:19:00.356Z,4.46
2022-12-31T01:22:03.291Z,4.39
2022-12-31T01:25:07.026Z,4.39
2022-12-31T01:28:10.082Z,4.38
2022-12-31T01:31:15.477Z,4.39
2022-12-31T01:34:18.510Z,4.39
2022-12-31T01:37:21.745Z,4.34
2022-12-31T01:40:24.710Z,4.34
2022-12-31T01:43:58.771Z,4.37
2022-12-31T01:47:03.524Z,4.43
2022-12-31T01:50:16.982Z,4.44
2022-12-31T01:53:20.119Z,4.44
2022-12-31T01:56:24.009Z,4.37
2022-12-31T01:59:28.552Z,4.39
2022-12-31T02:02:31.931Z,4.41
2022-12-31T02:05:41.131Z,4.37
2022-12-31T02:08:44.391Z,4.38
2022-12-31T02:11:47.667Z,4.47
2022-12-31T02:14:52.444Z,4.47
2022-12-31T02:18:05.062Z,4.51
2022-12-31T02:21:26.626Z,4.56
2022-12-31T02:24:39.137Z,4.57
2022-12-31T02:28:09.333Z,4.57
2022-12-31T02:31:51.080Z,4.45
2022-12-31T02:35:01.659Z,4.47
2022-12-31T02:38:16.647Z,4.46
2022-12-31T02:41:39.264Z,4.47
2022-12-31T02:44:43.475Z,4.47
2022-12-31T02:48:14.899Z,4.52
2022-12-31T02:51:39.489Z,4.51
2022-12-31T02:54:51.943Z,4.63
2022-12-31T02:58:19.765Z,4.58
2022-12-31T03:01:48.405Z,4.60
2022-12-31T03:04:58.116Z,4.55
2022-12-31T03:08:01.082Z,4.44
2022-12-31T03:11:24.375Z,4.52
2022-12-31T03:14:27.377Z,4.44
2022-12-31T03:17:30.571Z,4.46
2022-12-31T03:20:58.757Z,4.46
2022-12-31T03:24:20.687Z,4.50
2022-12-31T03:27:23.682Z,4.51
2022-12-31T03:30:27.521Z,4.49
2022-12-31T03:33:32.590Z,4.47
2022-12-31T03:36:35.642Z,4.34
2022-12-31T03:39:38.501Z,4.40
2022-12-31T03:42:42.029Z,4.38
2022-12-31T03:45:45.567Z,4.40
2022-12-31T03:48:48.787Z,4.43
2022-12-31T03:51:51.682Z,4.31
2022-12-31T03:54:54.872Z,4.30
2022-12-31T03:57:58.192Z,4.20
2022-12-31T04:01:02.084Z,4.11
2022-12-31T04:04:05.554Z,4.03
2022-12-31T04:07:08.677Z,4.01
2022-12-31T04:10:14.473Z,3.91
2022-12-31T04:13:17.430Z,3.87
2022-12-31T04:16:20.742Z,3.76
2022-12-31T04:19:23.718Z,3.97
2022-12-31T04:22:26.994Z,3.88
2022-12-31T04:25:29.979Z,3.78
2022-12-31T04:28:33.324Z,3.80
2022-12-31T04:31:36.487Z,3.76
2022-12-31T04:34:40.054Z,3.73
2022-12-31T04:37:43.140Z,3.72
2022-12-31T04:41:04.792Z,3.70
2022-12-31T04:44:07.721Z,3.65
2022-12-31T04:47:10.923Z,3.63
2022-12-31T04:50:13.919Z,3.66
2022-12-31T04:53:17.178Z,3.75
2022-12-31T04:56:20.128Z,3.79
2022-12-31T04:59:23.391Z,3.82
2022-12-31T05:02:26.392Z,3.87
2022-12-31T05:05:30.141Z,3.92
2022-12-31T05:08:34.424Z,3.94
2022-12-31T05:11:38.285Z,3.99
2022-12-31T05:14:41.442Z,4.09
2022-12-31T05:17:44.882Z,4.15
2022-12-31T05:20:48.432Z,4.06
2022-12-31T05:23:51.889Z,3.97
2022-12-31T05:26:54.768Z,3.96
2022-12-31T05:29:57.974Z,4.01
2022-12-31T05:33:01.058Z,4.06
2022-12-31T05:36:04.523Z,4.06
2022-12-31T05:39:07.564Z,3.99
2022-12-31T05:42:10.719Z,4.04
2022-12-31T05:45:13.758Z,4.09
2022-12-31T05:48:17.159Z,4.12
2022-12-31T05:51:20.089Z,4.17
2022-12-31T05:54:24.131Z,4.00
2022-12-31T05:57:27.081Z,4.10
2022-12-31T06:00:30.259Z,3.99
2022-12-31T06:03:33.444Z,4.05
2022-12-31T06:06:36.320Z,4.10
2022-12-31T06:09:39.689Z,4.18
2022-12-31T06:12:42.679Z,4.17
2022-12-31T06:15:46.007Z,4.20
2022-12-31T06:18:50.863Z,4.19
2022-12-31T06:21:55.893Z,4.14
2022-12-31T06:24:59.803Z,3.99
2022-12-31T06:28:04.501Z,4.10
2022-12-31T06:31:09.824Z,4.14
2022-12-31T06:34:13.091Z,4.18
2022-12-31T06:37:15.862Z,4.05
2022-12-31T06:40:19.255Z,4.19
2022-12-31T06:43:23.136Z,4.26
2022-12-31T06:46:26.523Z,4.20
2022-12-31T06:49:29.516Z,4.25
2022-12-31T06:52:32.998Z,4.20
2022-12-31T06:55:36.123Z,4.27
2022-12-31T06:58:40.083Z,4.30
2022-12-31T07:02:16.645Z,4.41
2022-12-31T07:05:29.095Z,4.39
2022-12-31T07:08:50.285Z,4.39
2022-12-31T07:12:08.176Z,4.47
2022-12-31T07:15:21.376Z,4.53
2022-12-31T07:18:36.935Z,4.57
2022-12-31T07:21:41.178Z,4.57
2022-12-31T07:24:45.200Z,4.70
2022-12-31T07:28:07.040Z,4.73
2022-12-31T07:31:18.411Z,4.78
2022-12-31T07:34:55.299Z,4.84
2022-12-31T07:38:17.341Z,4.97
2022-12-31T07:41:54.405Z,4.93
2022-12-31T07:45:29.812Z,5.03
2022-12-31T07:48:33.036Z,5.17
2022-12-31T07:51:36.480Z,5.22
2022-12-31T07:54:39.458Z,5.34
2022-12-31T07:57:57.873Z,5.42
2022-12-31T08:01:02.200Z,5.41
2022-12-31T08:04:28.010Z,5.46
2022-12-31T08:07:37.544Z,5.52
2022-12-31T08:10:46.391Z,5.48
2022-12-31T08:13:50.710Z,5.54
2022-12-31T08:16:54.266Z,5.50
2022-12-31T08:19:57.430Z,5.54
2022-12-31T08:23:12.870Z,5.53
2022-12-31T08:26:24.808Z,5.56
2022-12-31T08:29:34.267Z,5.59
2022-12-31T08:33:07.400Z,5.46
2022-12-31T08:36:38.199Z,5.50
2022-12-31T08:40:16.575Z,5.58
2022-12-31T08:43:32.479Z,5.39
2022-12-31T08:46:41.448Z,5.40
2022-12-31T08:49:45.141Z,5.50
2022-12-31T08:52:49.092Z,5.45
2022-12-31T08:56:02.249Z,5.45
2022-12-31T08:59:23.409Z,5.70
2022-12-31T09:02:58.631Z,5.91
2022-12-31T09:06:17.229Z,5.83
2022-12-31T09:09:33.235Z,6.00
2022-12-31T09:12:39.171Z,6.06
2022-12-31T09:16:07.314Z,5.98
2022-12-31T09:19:11.080Z,6.30
2022-12-31T09:22:14.548Z,6.36
2022-12-31T09:25:20.080Z,6.43
2022-12-31T09:28:45.672Z,6.86
2022-12-31T09:31:58.026Z,7.04
2022-12-31T09:35:37.360Z,7.12
2022-12-31T09:38:53.204Z,7.17
2022-12-31T09:41:59.509Z,7.26
2022-12-31T09:45:34.739Z,7.17
2022-12-31T09:48:37.875Z,7.36
2022-12-31T09:51:56.180Z,7.34
2022-12-31T09:55:22.748Z,7.25
2022-12-31T09:58:57.834Z,7.12
2022-12-31T10:02:10.415Z,7.30
2022-12-31T10:05:32.436Z,6.95
2022-12-31T10:08:48.371Z,6.85
2022-12-31T10:11:51.536Z,6.91
2022-12-31T10:15:05.434Z,6.95
2022-12-31T10:18:36.333Z,7.05
2022-12-31T10:21:48.282Z,7.06
2022-12-31T10:25:39.411Z,7.31
2022-12-31T10:29:20.594Z,7.35
2022-12-31T10:32:49.983Z,7.43
2022-12-31T10:36:08.808Z,7.44
2022-12-31T10:39:24.499Z,7.54
2022-12-31T10:42:33.267Z,7.51
2022-12-31T10:45:57.503Z,7.54
2022-12-31T10:49:28.856Z,7.55
2022-12-31T10:52:50.389Z,7.51
2022-12-31T10:55:59.079Z,7.73
2022-12-31T10:59:19.784Z,7.61
2022-12-31T11:02:46.062Z,7.77
2022-12-31T11:06:08.029Z,7.66
2022-12-31T11:09:46.736Z,7.78
2022-12-31T11:12:56.015Z,8.04
2022-12-31T11:16:28.554Z,8.23
2022-12-31T11:19:45.962Z,8.28
2022-12-31T11:23:12.994Z,8.10
2022-12-31T11:26:24.073Z,8.50
2022-12-31T11:30:07.227Z,8.66
2022-12-31T11:33:50.611Z,9.00
2022-12-31T11:37:02.605Z,9.38
2022-12-31T11:40:27.759Z,9.51
2022-12-31T11:43:35.610Z,9.35
2022-12-31T11:47:08.212Z,9.60
2022-12-31T11:50:17.386Z,9.96
2022-12-31T11:53:39.177Z,10.54
2022-12-31T11:56:46.643Z,11.06
2022-12-31T11:59:54.394Z,10.78
2022-12-31T12:03:04.400Z,11.31
2022-12-31T12:06:12.901Z,11.29
2022-12-31T12:09:22.502Z,11.56
2022-12-31T12:12:38.013Z,11.44
2022-12-31T12:15:47.161Z,12.15
2022-12-31T12:19:06.634Z,12.86
2022-12-31T12:22:12.332Z,12.68
2022-12-31T12:25:25.616Z,12.06
2022-12-31T12:28:31.468Z,11.14
2022-12-31T12:31:34.728Z,11.55
2022-12-31T12:34:44.549Z,11.51
2022-12-31T12:38:22.820Z,11.42
2022-12-31T12:41:27.774Z,10.99
2022-12-31T12:44:31.989Z,10.84
2022-12-31T12:47:35.256Z,10.83
2022-12-31T12:50:48.379Z,10.71
2022-12-31T12:54:00.719Z,10.36
2022-12-31T12:57:28.769Z,10.24
2022-12-31T13:01:04.781Z,9.80
2022-12-31T13:04:35.946Z,9.71
2022-12-31T13:08:01.167Z,9.76
2022-12-31T13:11:21.907Z,9.73
2022-12-31T13:15:00.441Z,9.56
2022-12-31T13:18:32.791Z,9.47
2022-12-31T13:21:43.963Z,9.14
2022-12-31T13:24:58.874Z,9.20
2022-12-31T13:28:10.075Z,9.27
2022-12-31T13:31:19.694Z,9.32
2022-12-31T13:34:42.632Z,9.49
2022-12-31T13:37:46.793Z,9.47
2022-12-31T13:41:02.936Z,9.46
2022-12-31T13:44:27.103Z,9.51
2022-12-31T13:47:33.077Z,9.71
2022-12-31T13:51:01.953Z,10.04
2022-12-31T13:54:18.458Z,10.14
2022-12-31T13:58:15.587Z,10.35
2022-12-31T14:01:21.319Z,11.12
2022-12-31T14:04:33.442Z,11.76
2022-12-31T14:07:45.338Z,11.88
2022-12-31T14:11:00.919Z,11.60
2022-12-31T14:14:24.359Z,11.54
2022-12-31T14:17:33.084Z,11.29
2022-12-31T14:20:45.322Z,12.10
2022-12-31T14:23:57.364Z,12.11
2022-12-31T14:27:03.824Z,11.65
2022-12-31T14:30:16.140Z,11.47
2022-12-31T14:33:34.175Z,11.14
2022-12-31T14:37:03.884Z,10.82
2022-12-31T14:40:15.785Z,10.30
2022-12-31T14:43:28.817Z,10.06
2022-12-31T14:46:51.770Z,9.87
2022-12-31T14:50:14.082Z,9.88
2022-12-31T14:53:25.603Z,9.77
2022-12-31T14:56:43.541Z,9.74
2022-12-31T15:00:25.169Z,9.79
2022-12-31T15:03:31.440Z,9.56
2022-12-31T15:06:44.061Z,9.50
2022-12-31T15:10:09.416Z,9.38
2022-12-31T15:13:19.820Z,9.09
2022-12-31T15:16:32.179Z,9.14
2022-12-31T15:20:03.668Z,9.06
2022-12-31T15:23:23.233Z,9.03
2022-12-31T15:26:31.063Z,9.01
2022-12-31T15:29:41.783Z,9.01
2022-12-31T15:32:47.258Z,9.03
2022-12-31T15:35:53.445Z,9.07
2022-12-31T15:39:22.602Z,8.99
2022-12-31T15:42:38.679Z,9.06
2022-12-31T15:45:43.370Z,9.12
2022-12-31T15:49:03.648Z,9.25
2022-12-31T15:52:12.518Z,9.25
2022-12-31T15:55:38.840Z,9.12
2022-12-31T15:58:41.675Z,9.12
2022-12-31T16:01:46.064Z,9.00
2022-12-31T16:04:50.503Z,9.13
2022-12-31T16:07:55.000Z,9.07
2022-12-31T16:10:59.727Z,9.08
2022-12-31T16:14:02.481Z,9.09
2022-12-31T16:17:06.743Z,9.08
2022-12-31T16:20:31.314Z,9.03
2022-12-31T16:23:42.248Z,9.11
2022-12-31T16:26:49.407Z,9.08
2022-12-31T16:29:59.869Z,9.06
2022-12-31T16:33:05.457Z,9.03
2022-12-31T16:36:39.610Z,8.96
2022-12-31T16:39:57.906Z,8.94
2022-12-31T16:43:58.857Z,9.02
2022-12-31T16:47:03.567Z,8.99
2022-12-31T16:50:18.493Z,8.94
2022-12-31T16:53:44.814Z,8.89
2022-12-31T16:56:52.137Z,8.80
2022-12-31T17:00:05.584Z,8.72
2022-12-31T17:03:20.998Z,8.76
2022-12-31T17:06:24.555Z,8.80
2022-12-31T17:09:34.343Z,8.77
2022-12-31T17:16:34.720Z,8.77
2022-12-31T17:19:43.267Z,8.75
2022-12-31T17:22:55.971Z,8.78
2022-12-31T17:26:08.084Z,8.84
2022-12-31T17:29:25.922Z,8.78
2022-12-31T17:32:40.126Z,8.76
2022-12-31T17:35:46.987Z,8.76
2022-12-31T17:38:51.567Z,8.77
2022-12-31T17:41:57.355Z,8.72
2022-12-31T17:45:03.120Z,8.77
2022-12-31T17:48:07.709Z,8.73
2022-12-31T17:51:11.332Z,8.79
2022-12-31T17:54:16.508Z,8.97
2022-12-31T17:57:29.506Z,8.78
2022-12-31T18:00:33.628Z,8.79
2022-12-31T18:03:37.058Z,8.74
2022-12-31T18:06:41.556Z,8.76
2022-12-31T18:09:44.935Z,8.82
2022-12-31T18:12:49.804Z,8.89
2022-12-31T18:15:55.011Z,8.99
2022-12-31T18:19:00.194Z,9.00
2022-12-31T18:22:03.805Z,9.04
2022-12-31T18:25:07.645Z,9.10
2022-12-31T18:28:12.015Z,9.13
2022-12-31T18:31:23.588Z,9.20
2022-12-31T18:34:28.348Z,9.26
2022-12-31T18:37:37.867Z,9.22
2022-12-31T18:40:44.422Z,9.16
2022-12-31T18:43:49.059Z,9.14
2022-12-31T18:46:52.667Z,9.14
2022-12-31T18:49:58.108Z,9.14
2022-12-31T18:53:03.126Z,9.19
2022-12-31T18:56:11.439Z,9.18
2022-12-31T18:59:14.775Z,9.17
2022-12-31T19:02:20.308Z,9.18
2022-12-31T19:05:28.521Z,9.27
2022-12-31T19:08:34.029Z,9.25
2022-12-31T19:11:37.430Z,9.27
2022-12-31T19:14:41.252Z,9.24
2022-12-31T19:17:44.529Z,9.19
2022-12-31T19:20:47.698Z,9.26
2022-12-31T19:23:51.657Z,9.31
2022-12-31T19:26:55.226Z,9.49
2022-12-31T19:29:58.549Z,9.39
2022-12-31T19:33:01.542Z,9.50
2022-12-31T19:36:07.426Z,9.54
2022-12-31T19:39:14.956Z,9.61
2022-12-31T19:42:18.531Z,9.48
2022-12-31T19:45:27.141Z,9.61
2022-12-31T19:48:32.927Z,9.70
2022-12-31T19:51:36.304Z,9.66
2022-12-31T19:54:39.603Z,9.46
2022-12-31T19:57:43.047Z,9.37
2022-12-31T20:00:53.957Z,9.32
2022-12-31T20:04:00.518Z,9.24
2022-12-31T20:07:03.555Z,9.24
2022-12-31T20:10:08.029Z,9.29
2022-12-31T20:13:11.030Z,9.23
2022-12-31T20:16:17.277Z,9.31
2022-12-31T20:19:20.299Z,9.33
2022-12-31T20:22:23.771Z,9.33
2022-12-31T20:25:26.757Z,9.23
2022-12-31T20:28:31.763Z,9.13
2022-12-31T20:31:35.720Z,9.00
2022-12-31T20:34:39.069Z,8.82
2022-12-31T20:37:42.340Z,8.70
2022-12-31T20:40:47.164Z,8.51
2022-12-31T20:43:51.058Z,8.45
2022-12-31T20:46:55.120Z,8.38
2022-12-31T20:50:13.392Z,8.62
2022-12-31T20:53:16.965Z,8.74
2022-12-31T20:56:21.304Z,8.75
2022-12-31T20:59:25.948Z,8.49
2022-12-31T21:02:40.970Z,8.38
2022-12-31T21:05:53.427Z,8.20
2022-12-31T21:08:57.942Z,8.02
2022-12-31T21:12:20.186Z,7.93
2022-12-31T21:15:23.267Z,7.77
2022-12-31T21:18:26.784Z,7.70
2022-12-31T21:21:30.113Z,7.64
2022-12-31T21:24:33.358Z,7.67
2022-12-31T21:27:36.254Z,7.75
2022-12-31T21:30:40.440Z,7.76
2022-12-31T21:33:47.365Z,7.76
2022-12-31T21:36:50.630Z,7.76
2022-12-31T21:39:54.023Z,7.84
2022-12-31T21:42:57.506Z,7.84
2022-12-31T21:46:05.368Z,7.74
2022-12-31T21:49:08.915Z,7.62
2022-12-31T21:52:32.409Z,7.48
2022-12-31T21:55:57.332Z,7.59
2022-12-31T21:59:18.828Z,7.50
2022-12-31T22:02:41.352Z,7.42
2022-12-31T22:06:12.622Z,7.30
2022-12-31T22:09:15.695Z,7.23
2022-12-31T22:12:19.203Z,7.24
2022-12-31T22:15:22.104Z,7.24
2022-12-31T22:18:25.829Z,7.49
2022-12-31T22:21:28.947Z,7.79
2022-12-31T22:24:32.255Z,8.07
2022-12-31T22:27:36.507Z,8.22
2022-12-31T22:30:39.957Z,8.17
2022-12-31T22:33:44.171Z,8.06
2022-12-31T22:36:48.516Z,7.87
2022-12-31T22:39:51.314Z,7.91
2022-12-31T22:42:55.479Z,7.96
2022-12-31T22:45:58.703Z,7.96
2022-12-31T22:49:03.499Z,8.06
2022-12-31T22:52:08.792Z,8.10
2022-12-31T22:55:12.290Z,8.09
2022-12-31T22:58:15.405Z,8.11
2022-12-31T23:01:25.525Z,8.14
2022-12-31T23:04:28.749Z,8.11
2022-12-31T23:07:32.256Z,8.07
2022-12-31T23:10:55.018Z,8.09
2022-12-31T23:14:16.882Z,8.26
2022-12-31T23:17:41.592Z,8.30
2022-12-31T23:21:03.664Z,8.34
2022-12-31T23:24:11.296Z,8.40
2022-12-31T23:27:19.206Z,8.52
2022-12-31T23:30:22.145Z,8.46
2022-12-31T23:33:26.524Z,8.43
2022-12-31T23:36:29.627Z,8.41
2022-12-31T23:39:33.030Z,8.27
2022-12-31T23:42:35.996Z,8.13
2022-12-31T23:45:39.449Z,7.91
2022-12-31T23:48:43.156Z,7.75
2022-12-31T23:51:46.132Z,7.68
2022-12-31T23:54:48.789Z,8.01
2022-12-31T23:57:51.867Z,8.12
